Time;durP1;ratioP1;P1;durP2;ratioP2;P2;SDS_P1;SDS_P2;PMS_P1;PMS_P2;Temp;Humidity;BMP_temperature;BMP_pressure;BME280_temperature;BME280_humidity;BME280_pressure;Samples;Min_cycle;Max_cycle;Signal;HPM_P1;HPM_P2
2021/10/08 00:02:08;;;;;;;10.38;9.30;;;11.00;99.90;;;;;;5014710;28;20381;-86
2021/10/08 00:04:35;;;;;;;10.60;9.68;;;11.10;99.90;;;;;;5015546;28;20428;-87
2021/10/08 00:07:02;;;;;;;10.15;9.23;;;11.10;99.90;;;;;;5015008;28;20408;-87
2021/10/08 00:09:30;;;;;;;16.73;14.82;;;11.10;99.90;;;;;;5047904;28;20389;-87
2021/10/08 00:11:57;;;;;;;11.70;10.50;;;11.10;99.90;;;;;;5023185;28;20376;-87
2021/10/08 00:14:23;;;;;;;12.55;10.13;;;11.20;99.90;;;;;;5052277;28;20387;-87
2021/10/08 00:16:49;;;;;;;12.13;9.57;;;11.20;99.90;;;;;;5034302;28;20426;-86
2021/10/08 00:19:16;;;;;;;11.10;10.00;;;11.20;99.90;;;;;;5051643;28;20458;-87
2021/10/08 00:21:41;;;;;;;9.63;8.63;;;11.30;99.90;;;;;;5033588;28;20380;-87
2021/10/08 00:24:07;;;;;;;10.20;9.20;;;11.30;99.90;;;;;;5033757;28;20391;-88
2021/10/08 00:26:32;;;;;;;10.30;9.20;;;11.20;99.90;;;;;;5033387;28;20859;-86
2021/10/08 00:28:58;;;;;;;10.55;8.93;;;11.30;99.90;;;;;;5033930;28;20946;-88
2021/10/08 00:31:24;;;;;;;10.10;9.23;;;11.30;99.90;;;;;;5051531;28;20399;-87
2021/10/08 00:33:49;;;;;;;9.33;8.47;;;11.30;99.90;;;;;;5033248;28;20391;-87
2021/10/08 00:36:15;;;;;;;8.57;7.78;;;11.40;99.90;;;;;;5033676;28;20453;-86
2021/10/08 00:38:41;;;;;;;9.57;8.68;;;11.50;99.90;;;;;;5051718;28;20505;-88
2021/10/08 00:41:08;;;;;;;8.07;7.37;;;11.40;99.90;;;;;;5051712;28;20399;-87
2021/10/08 00:43:34;;;;;;;8.43;7.65;;;11.50;99.90;;;;;;5032759;28;20384;-87
2021/10/08 00:46:01;;;;;;;9.38;8.23;;;11.50;99.90;;;;;;5032063;28;20409;-87
2021/10/08 00:48:26;;;;;;;8.20;7.50;;;11.40;99.90;;;;;;5019757;28;20376;-87
2021/10/08 00:50:52;;;;;;;8.70;7.90;;;11.50;99.90;;;;;;5033523;28;20384;-86
2021/10/08 00:53:20;;;;;;;9.73;8.82;;;11.50;99.90;;;;;;5033692;28;20741;-87
2021/10/08 00:55:51;;;;;;;9.80;8.80;;;11.40;99.90;;;;;;5033507;28;20392;-87
2021/10/08 00:58:19;;;;;;;9.45;8.55;;;11.50;99.90;;;;;;5051443;28;20723;-87
2021/10/08 01:00:46;;;;;;;10.35;9.25;;;11.40;99.90;;;;;;5033526;28;20368;-87
2021/10/08 01:03:13;;;;;;;9.77;8.77;;;11.40;99.90;;;;;;5032682;28;20896;-87
2021/10/08 01:05:40;;;;;;;8.52;7.63;;;11.40;99.90;;;;;;5013869;28;20476;-87
2021/10/08 01:08:06;;;;;;;9.85;8.85;;;11.20;99.90;;;;;;5031242;28;20373;-86
2021/10/08 01:10:32;;;;;;;10.25;9.15;;;11.10;99.90;;;;;;5013718;28;20381;-87
2021/10/08 01:12:59;;;;;;;11.48;10.32;;;11.10;99.90;;;;;;5048738;28;20395;-86
2021/10/08 01:15:25;;;;;;;9.90;8.90;;;11.00;99.90;;;;;;5032946;28;20430;-87
2021/10/08 01:17:53;;;;;;;10.47;9.43;;;10.90;99.90;;;;;;5050594;28;20391;-87
2021/10/08 01:20:19;;;;;;;11.95;9.55;;;10.90;99.90;;;;;;5032686;28;20386;-88
2021/10/08 01:22:44;;;;;;;10.63;9.63;;;10.80;99.90;;;;;;5032689;28;20466;-87
2021/10/08 01:25:10;;;;;;;9.70;8.80;;;10.90;99.90;;;;;;5050212;28;20852;-87
2021/10/08 01:27:36;;;;;;;9.63;8.73;;;10.80;99.90;;;;;;5031851;28;20451;-86
2021/10/08 01:30:03;;;;;;;9.70;8.80;;;10.80;99.90;;;;;;5032657;28;20464;-86
2021/10/08 01:32:30;;;;;;;9.73;8.82;;;10.80;99.90;;;;;;5031811;28;20411;-86
2021/10/08 01:34:56;;;;;;;10.23;9.30;;;10.80;99.90;;;;;;5050605;28;20450;-86
2021/10/08 01:37:22;;;;;;;9.07;8.18;;;10.80;99.90;;;;;;5049608;28;20391;-86
2021/10/08 01:39:48;;;;;;;9.73;8.82;;;10.80;99.90;;;;;;5032368;28;20946;-86
2021/10/08 01:42:14;;;;;;;10.10;9.02;;;10.80;99.90;;;;;;5032391;28;20412;-87
2021/10/08 01:44:40;;;;;;;10.68;9.57;;;10.80;99.90;;;;;;5032081;28;20412;-87
2021/10/08 01:47:06;;;;;;;12.87;11.07;;;10.70;99.90;;;;;;5032229;28;20479;-87
2021/10/08 01:49:33;;;;;;;12.50;10.07;;;10.80;99.90;;;;;;5032017;28;20379;-86
2021/10/08 01:51:59;;;;;;;9.50;8.60;;;10.80;99.90;;;;;;5050309;28;20384;-86
2021/10/08 01:54:25;;;;;;;10.77;9.68;;;10.80;99.90;;;;;;5032535;28;20429;-87
2021/10/08 01:56:51;;;;;;;10.87;9.77;;;10.70;99.90;;;;;;5031946;28;20391;-86
2021/10/08 01:59:16;;;;;;;9.40;8.43;;;10.60;99.90;;;;;;5050785;28;20367;-86
2021/10/08 02:01:43;;;;;;;10.82;8.63;;;10.50;99.90;;;;;;5049903;28;20398;-87
2021/10/08 02:04:09;;;;;;;8.70;7.80;;;10.40;99.90;;;;;;5032861;28;20383;-87
2021/10/08 02:06:35;;;;;;;9.03;8.13;;;10.30;99.90;;;;;;5049592;28;20496;-86
2021/10/08 02:09:06;;;;;;;8.60;7.70;;;10.30;99.90;;;;;;5049801;28;20379;-87
2021/10/08 02:12:04;;;;;;;8.30;7.43;;;10.20;99.90;;;;;;5032199;28;20793;-86
2021/10/08 02:14:30;;;;;;;8.30;7.43;;;10.20;99.90;;;;;;5004235;28;20396;-86
2021/10/08 02:17:43;;;;;;;12.30;8.55;;;10.10;99.90;;;;;;5032315;28;20450;-86
2021/10/08 02:20:17;;;;;;;8.55;7.72;;;10.00;99.90;;;;;;5049511;28;20383;-87
2021/10/08 02:22:51;;;;;;;8.48;7.57;;;9.90;99.90;;;;;;5031404;28;20430;-85
2021/10/08 02:25:17;;;;;;;8.60;7.70;;;9.80;99.90;;;;;;5031524;28;20757;-86
2021/10/08 02:39:03;;;;;;;9.05;8.25;;;9.50;99.90;;;;;;4917410;29;20390;-86
2021/10/08 02:49:02;;;;;;;10.32;9.30;;;9.20;99.90;;;;;;4938846;28;20394;-86
2021/10/08 02:51:28;;;;;;;10.73;9.43;;;9.10;99.90;;;;;;4955291;28;20402;-86
2021/10/08 02:53:54;;;;;;;9.52;8.70;;;9.10;99.90;;;;;;4955733;28;20398;-86
2021/10/08 02:56:22;;;;;;;10.80;9.83;;;9.10;99.90;;;;;;5009192;28;20480;-86
2021/10/08 02:58:47;;;;;;;11.93;10.70;;;9.00;99.90;;;;;;5034577;28;20395;-86
2021/10/08 03:01:13;;;;;;;10.53;9.37;;;8.90;99.90;;;;;;5035383;28;20388;-86
2021/10/08 03:03:38;;;;;;;11.75;10.63;;;8.90;99.90;;;;;;5052224;28;20399;-86
2021/10/08 03:06:04;;;;;;;13.75;11.70;;;8.80;99.90;;;;;;5034867;28;20388;-86
2021/10/08 03:08:30;;;;;;;13.40;12.03;;;8.80;99.90;;;;;;5034730;28;20929;-87
2021/10/08 03:10:55;;;;;;;13.43;12.02;;;8.80;99.90;;;;;;5052721;28;20446;-86
2021/10/08 03:13:21;;;;;;;11.68;10.57;;;8.70;99.90;;;;;;5030797;28;20417;-86
2021/10/08 03:15:47;;;;;;;12.63;11.43;;;8.60;99.90;;;;;;5033299;28;20404;-86
2021/10/08 03:18:12;;;;;;;14.20;12.80;;;8.60;99.90;;;;;;5047863;28;20415;-86
2021/10/08 03:20:38;;;;;;;15.30;13.70;;;8.60;99.90;;;;;;5046416;28;20383;-86
2021/10/08 03:23:03;;;;;;;14.03;12.63;;;8.60;99.90;;;;;;5052884;28;20479;-87
2021/10/08 03:25:29;;;;;;;20.87;17.73;;;8.70;99.90;;;;;;5034830;28;20387;-86
2021/10/08 03:27:55;;;;;;;17.98;16.00;;;8.70;99.90;;;;;;5050958;28;20754;-86
2021/10/08 03:30:20;;;;;;;34.33;24.93;;;8.80;99.90;;;;;;5052425;28;20384;-86
2021/10/08 03:32:46;;;;;;;22.40;20.03;;;8.80;99.90;;;;;;5046952;28;20392;-86
2021/10/08 03:35:11;;;;;;;59.67;33.25;;;9.00;99.90;;;;;;5019575;28;20428;-86
2021/10/08 03:38:07;;;;;;;78.78;38.40;;;9.20;99.90;;;;;;5032467;28;20388;-86
2021/10/08 03:40:30;;;;;;;110.30;45.83;;;9.40;99.90;;;;;;5031500;28;20851;-87
2021/10/08 03:42:58;;;;;;;96.30;45.63;;;9.60;99.90;;;;;;5034038;28;20406;-86
2021/10/08 03:45:30;;;;;;;68.10;41.35;;;9.70;99.90;;;;;;5031083;28;20387;-87
2021/10/08 03:48:07;;;;;;;80.18;44.45;;;9.90;99.90;;;;;;5015133;28;20390;-86
2021/10/08 03:50:33;;;;;;;92.65;46.13;;;9.90;99.90;;;;;;5014681;28;20390;-87
2021/10/08 03:52:59;;;;;;;76.60;43.15;;;10.10;99.90;;;;;;5045450;28;20798;-88
2021/10/08 03:55:24;;;;;;;105.83;46.90;;;10.10;99.90;;;;;;5034073;28;20400;-85
2021/10/08 03:57:50;;;;;;;104.20;46.80;;;10.10;99.90;;;;;;5030919;28;20421;-87
2021/10/08 04:00:16;;;;;;;79.70;42.80;;;10.10;99.90;;;;;;5024157;28;20817;-86
2021/10/08 04:02:42;;;;;;;94.03;45.27;;;10.10;99.90;;;;;;5052969;28;20857;-86
2021/10/08 04:05:08;;;;;;;119.37;47.87;;;10.10;99.90;;;;;;5035289;28;20422;-87
2021/10/08 04:07:33;;;;;;;67.43;40.40;;;10.10;99.90;;;;;;5034144;28;20387;-88
2021/10/08 04:09:59;;;;;;;127.57;49.77;;;10.10;99.90;;;;;;5032602;28;20588;-88
2021/10/08 04:12:26;;;;;;;91.25;44.97;;;10.10;99.90;;;;;;5049281;28;20865;-85
2021/10/08 04:14:51;;;;;;;88.60;44.13;;;10.10;99.90;;;;;;5035969;28;20388;-85
2021/10/08 04:17:17;;;;;;;88.83;44.83;;;10.10;99.90;;;;;;5051376;28;20381;-85
2021/10/08 04:19:44;;;;;;;83.15;46.35;;;10.10;99.90;;;;;;5050442;28;20423;-84
2021/10/08 04:22:10;;;;;;;73.80;41.60;;;10.10;99.90;;;;;;5027962;28;20861;-87
2021/10/08 04:24:35;;;;;;;96.65;44.72;;;10.10;99.90;;;;;;5014066;28;20496;-86
2021/10/08 04:27:01;;;;;;;99.07;46.37;;;10.10;99.90;;;;;;5016203;28;20729;-87
2021/10/08 04:29:26;;;;;;;103.07;47.23;;;10.00;99.90;;;;;;5043031;28;20381;-86
2021/10/08 04:31:52;;;;;;;103.88;47.38;;;10.10;99.90;;;;;;5013968;28;20860;-87
2021/10/08 04:34:18;;;;;;;81.50;43.10;;;10.10;99.90;;;;;;5024830;28;20459;-86
2021/10/08 04:36:43;;;;;;;92.85;45.80;;;10.20;99.90;;;;;;5032958;28;20395;-86
2021/10/08 04:39:09;;;;;;;89.93;44.88;;;10.20;99.90;;;;;;5050833;28;20895;-86
2021/10/08 04:41:34;;;;;;;106.53;46.37;;;10.20;99.90;;;;;;5049916;28;20391;-86
2021/10/08 04:44:00;;;;;;;108.45;46.22;;;10.30;99.90;;;;;;5026540;28;20783;-87
2021/10/08 04:46:26;;;;;;;119.50;48.70;;;10.30;99.90;;;;;;5031204;28;20386;-87
2021/10/08 04:48:51;;;;;;;112.17;48.43;;;10.30;99.90;;;;;;5018184;28;20885;-86
2021/10/08 04:51:17;;;;;;;124.22;48.38;;;10.30;99.90;;;;;;5032825;28;20423;-88
2021/10/08 04:53:42;;;;;;;102.20;44.20;;;10.40;99.90;;;;;;5051279;28;20474;-84
2021/10/08 04:56:08;;;;;;;105.47;46.47;;;10.40;99.90;;;;;;5030916;28;20806;-86
2021/10/08 04:58:34;;;;;;;131.90;49.58;;;10.40;99.90;;;;;;5029998;28;20394;-85
2021/10/08 05:00:59;;;;;;;120.83;48.67;;;10.40;99.90;;;;;;5013403;28;20855;-87
2021/10/08 05:03:25;;;;;;;110.10;46.67;;;10.50;99.90;;;;;;5013563;28;20461;-84
2021/10/08 05:05:52;;;;;;;109.67;48.00;;;10.50;99.90;;;;;;5031307;28;20412;-86
2021/10/08 05:08:19;;;;;;;119.20;50.40;;;10.50;99.90;;;;;;5031057;28;20389;-86
2021/10/08 05:10:46;;;;;;;123.63;50.88;;;10.50;99.90;;;;;;5038584;28;20396;-86
2021/10/08 05:13:12;;;;;;;115.65;50.97;;;10.40;99.90;;;;;;5042883;28;20393;-86
2021/10/08 05:15:38;;;;;;;119.93;52.47;;;10.50;99.90;;;;;;5041365;28;20422;-87
2021/10/08 05:18:04;;;;;;;132.63;56.03;;;10.40;99.90;;;;;;5033409;28;20865;-87
2021/10/08 05:20:30;;;;;;;114.50;54.57;;;10.40;99.90;;;;;;5032956;28;20414;-85
2021/10/08 05:22:55;;;;;;;121.63;56.30;;;10.40;99.90;;;;;;5044586;28;20389;-86
2021/10/08 05:25:21;;;;;;;116.67;55.27;;;10.40;99.90;;;;;;5031609;28;20386;-85
2021/10/08 05:27:47;;;;;;;155.45;61.72;;;10.40;99.90;;;;;;5020216;28;20479;-86
2021/10/08 05:30:13;;;;;;;93.70;53.00;;;10.40;99.90;;;;;;5043433;28;20447;-85
2021/10/08 05:32:40;;;;;;;118.20;58.15;;;10.50;99.90;;;;;;5021148;28;20394;-85
2021/10/08 05:35:07;;;;;;;113.10;57.67;;;10.40;99.90;;;;;;5012828;28;20744;-87
2021/10/08 05:37:32;;;;;;;114.95;57.40;;;10.50;99.90;;;;;;5012881;28;20427;-86
2021/10/08 05:39:58;;;;;;;101.90;55.50;;;10.50;99.90;;;;;;5012405;28;20393;-87
2021/10/08 05:42:24;;;;;;;105.33;53.73;;;10.60;99.90;;;;;;5027646;28;20463;-85
2021/10/08 05:44:49;;;;;;;117.30;56.72;;;10.60;99.90;;;;;;5050002;28;20391;-86
2021/10/08 05:47:15;;;;;;;97.20;51.80;;;10.60;99.90;;;;;;5049676;28;20723;-86
2021/10/08 05:49:41;;;;;;;111.63;52.60;;;10.60;99.90;;;;;;5050196;28;20388;-87
2021/10/08 05:52:07;;;;;;;91.55;49.33;;;10.60;99.90;;;;;;5032177;28;20376;-86
2021/10/08 05:54:32;;;;;;;78.78;46.63;;;10.60;99.90;;;;;;5049841;28;20380;-86
2021/10/08 05:56:58;;;;;;;82.60;47.37;;;10.60;99.90;;;;;;5049458;28;20388;-85
2021/10/08 05:59:24;;;;;;;106.70;53.10;;;10.60;99.90;;;;;;5032017;28;20692;-86
2021/10/08 06:01:49;;;;;;;92.88;47.20;;;10.60;99.90;;;;;;5032597;28;20376;-84
2021/10/08 06:04:15;;;;;;;74.90;45.73;;;10.70;99.90;;;;;;5050110;28;20380;-86
2021/10/08 06:06:41;;;;;;;85.47;48.07;;;10.70;99.90;;;;;;5049953;28;20451;-86
2021/10/08 06:09:06;;;;;;;81.70;47.45;;;10.60;99.90;;;;;;5049833;28;20387;-87
2021/10/08 06:11:32;;;;;;;84.70;46.90;;;10.70;99.90;;;;;;5049880;28;20395;-86
2021/10/08 06:13:58;;;;;;;86.80;46.30;;;10.80;99.90;;;;;;5048984;28;20896;-84
2021/10/08 06:16:24;;;;;;;96.07;48.47;;;10.80;99.90;;;;;;5049776;28;20446;-88
2021/10/08 06:18:50;;;;;;;114.43;49.23;;;10.80;99.90;;;;;;5049821;28;20400;-85
2021/10/08 06:21:15;;;;;;;104.55;49.78;;;10.80;99.90;;;;;;5032106;28;20380;-86
2021/10/08 06:23:41;;;;;;;106.60;50.35;;;10.80;99.90;;;;;;5035375;28;20392;-86
2021/10/08 06:26:07;;;;;;;101.53;50.17;;;10.70;99.90;;;;;;5035654;28;20438;-85
2021/10/08 06:28:33;;;;;;;83.00;48.67;;;10.80;99.90;;;;;;5053519;28;20387;-87
2021/10/08 06:30:59;;;;;;;88.60;49.40;;;10.70;99.90;;;;;;5035954;28;20715;-87
2021/10/08 06:33:24;;;;;;;99.63;52.33;;;10.70;99.90;;;;;;5035594;28;20384;-85
2021/10/08 06:35:51;;;;;;;83.88;48.75;;;10.60;99.90;;;;;;5035436;28;20742;-86
2021/10/08 06:38:17;;;;;;;80.80;48.35;;;10.70;99.90;;;;;;5036038;28;20864;-87
2021/10/08 06:40:43;;;;;;;84.43;48.10;;;10.70;99.90;;;;;;5034892;28;20392;-85
2021/10/08 06:43:09;;;;;;;71.05;46.00;;;10.70;99.90;;;;;;5035136;28;20387;-86
2021/10/08 06:45:36;;;;;;;67.18;45.33;;;10.90;99.90;;;;;;5053255;28;20391;-85
2021/10/08 06:48:01;;;;;;;68.95;45.70;;;10.90;99.90;;;;;;5035239;28;20379;-84
2021/10/08 06:50:27;;;;;;;67.60;47.38;;;11.00;99.90;;;;;;5035492;28;20833;-87
2021/10/08 06:52:53;;;;;;;65.10;47.90;;;11.00;99.90;;;;;;5052761;28;20486;-86
2021/10/08 06:55:19;;;;;;;65.68;46.40;;;11.10;99.90;;;;;;5034799;28;20427;-87
2021/10/08 06:57:44;;;;;;;58.50;45.73;;;11.20;99.90;;;;;;5034935;28;20387;-86
2021/10/08 07:00:10;;;;;;;63.77;47.27;;;11.30;99.90;;;;;;5034768;28;20415;-87
2021/10/08 07:02:52;;;;;;;64.82;48.33;;;11.30;99.90;;;;;;5052952;28;20375;-87
2021/10/08 07:05:22;;;;;;;66.43;49.45;;;11.40;99.90;;;;;;5053243;28;20364;-87
2021/10/08 07:07:49;;;;;;;67.43;49.63;;;11.30;99.90;;;;;;5023676;28;20380;-86
2021/10/08 07:10:15;;;;;;;70.97;52.65;;;11.40;99.90;;;;;;5052542;28;20390;-87
2021/10/08 07:13:04;;;;;;;75.25;54.50;;;11.40;99.90;;;;;;5034909;28;20860;-87
2021/10/08 07:15:35;;;;;;;68.57;53.28;;;11.40;99.90;;;;;;5052535;28;20398;-88
2021/10/08 07:18:06;;;;;;;63.65;51.85;;;11.50;99.90;;;;;;5031199;28;20894;-87
2021/10/08 07:20:32;;;;;;;59.90;49.60;;;11.70;99.90;;;;;;5015671;28;20413;-86
2021/10/08 07:22:58;;;;;;;59.42;50.15;;;11.90;99.90;;;;;;5015912;28;20467;-87
2021/10/08 07:25:29;;;;;;;60.38;50.50;;;12.00;99.90;;;;;;5014764;28;20373;-87
2021/10/08 07:27:55;;;;;;;61.25;50.15;;;12.00;99.90;;;;;;5031495;28;20381;-87
2021/10/08 07:30:21;;;;;;;59.40;49.65;;;12.00;99.90;;;;;;5013700;28;20366;-87
2021/10/08 07:32:47;;;;;;;63.53;51.75;;;12.10;99.90;;;;;;5014132;28;20476;-87
2021/10/08 07:35:14;;;;;;;63.13;51.40;;;12.00;99.90;;;;;;5030641;28;20393;-86
2021/10/08 07:37:40;;;;;;;60.17;50.78;;;12.00;99.90;;;;;;5013015;28;20390;-85
2021/10/08 07:40:07;;;;;;;61.30;50.85;;;12.20;99.90;;;;;;5030667;28;20368;-86
2021/10/08 07:42:39;;;;;;;65.93;52.90;;;12.00;99.90;;;;;;5014116;28;20374;-85
2021/10/08 07:45:07;;;;;;;62.75;52.88;;;12.00;99.90;;;;;;5014863;28;20400;-87
2021/10/08 07:47:33;;;;;;;66.10;54.00;;;11.90;99.90;;;;;;5032334;28;20365;-85
2021/10/08 07:49:59;;;;;;;64.22;54.25;;;11.80;99.90;;;;;;5014872;28;20449;-86
2021/10/08 07:52:24;;;;;;;66.30;53.20;;;11.80;99.90;;;;;;5014457;28;20523;-87
2021/10/08 07:54:50;;;;;;;67.20;54.17;;;11.70;99.90;;;;;;5032217;28;20469;-84
2021/10/08 07:57:15;;;;;;;62.57;51.60;;;11.80;99.90;;;;;;5014955;28;20394;-87
2021/10/08 07:59:41;;;;;;;62.50;51.35;;;11.70;99.90;;;;;;5015349;28;20739;-86
2021/10/08 08:02:07;;;;;;;64.87;53.03;;;11.90;99.90;;;;;;5014969;28;20377;-87
2021/10/08 08:04:33;;;;;;;65.07;53.17;;;11.80;99.90;;;;;;5014453;28;20953;-87
2021/10/08 08:06:59;;;;;;;61.38;52.65;;;11.80;99.90;;;;;;5032043;28;20917;-84
2021/10/08 08:09:24;;;;;;;63.08;51.92;;;11.90;99.90;;;;;;5032227;28;20377;-87
2021/10/08 08:11:50;;;;;;;61.73;50.47;;;11.80;99.90;;;;;;5031925;28;20436;-86
2021/10/08 08:14:16;;;;;;;60.50;49.93;;;11.90;99.90;;;;;;5014387;28;20385;-86
2021/10/08 08:16:44;;;;;;;55.63;47.90;;;12.00;99.90;;;;;;5031763;28;20406;-86
2021/10/08 08:19:11;;;;;;;58.50;47.70;;;12.30;99.90;;;;;;5032015;28;20399;-87
2021/10/08 08:21:37;;;;;;;56.03;47.00;;;12.40;99.90;;;;;;5029873;28;20782;-87
2021/10/08 08:24:09;;;;;;;54.00;45.50;;;12.40;99.90;;;;;;5028191;28;20457;-87
2021/10/08 08:26:36;;;;;;;52.72;44.97;;;12.60;99.90;;;;;;5033448;28;20384;-87
2021/10/08 08:29:03;;;;;;;53.22;45.30;;;12.70;99.90;;;;;;5033614;28;20962;-84
2021/10/08 08:31:29;;;;;;;55.17;45.28;;;12.70;99.90;;;;;;5033382;28;21139;-86
2021/10/08 08:33:55;;;;;;;54.83;45.50;;;12.80;99.90;;;;;;5051164;28;20368;-86
2021/10/08 08:36:22;;;;;;;51.53;44.50;;;12.70;99.90;;;;;;5043183;28;20957;-87
2021/10/08 08:38:49;;;;;;;53.53;45.33;;;12.70;99.90;;;;;;5057006;28;20404;-86
2021/10/08 08:41:14;;;;;;;49.42;43.17;;;12.70;99.90;;;;;;5040294;28;20473;-87
2021/10/08 08:43:40;;;;;;;43.13;38.43;;;12.90;99.90;;;;;;5039751;28;20457;-88
2021/10/08 08:46:05;;;;;;;42.40;37.80;;;13.30;99.90;;;;;;5058051;28;20387;-87
2021/10/08 08:48:31;;;;;;;40.73;35.87;;;13.80;99.90;;;;;;5039062;28;20851;-86
2021/10/08 08:50:57;;;;;;;41.37;36.60;;;14.20;99.90;;;;;;5057931;28;20389;-85
2021/10/08 08:53:23;;;;;;;41.60;34.35;;;14.40;99.90;;;;;;5040717;28;20896;-85
2021/10/08 08:55:52;;;;;;;41.05;36.55;;;14.60;99.90;;;;;;5040159;28;20834;-86
2021/10/08 08:58:18;;;;;;;44.30;36.00;;;14.50;99.90;;;;;;5059333;28;20892;-86
2021/10/08 09:00:46;;;;;;;43.90;36.17;;;14.50;99.90;;;;;;5039506;28;20744;-86
2021/10/08 09:03:14;;;;;;;40.80;35.93;;;14.20;99.90;;;;;;5058265;28;20378;-86
2021/10/08 09:05:46;;;;;;;47.35;38.10;;;14.00;99.90;;;;;;5058465;28;20401;-87
2021/10/08 09:08:13;;;;;;;44.63;36.60;;;13.80;99.90;;;;;;5040916;28;20385;-86
2021/10/08 09:10:42;;;;;;;41.42;36.65;;;13.90;99.90;;;;;;5041079;28;20727;-85
2021/10/08 09:13:08;;;;;;;43.90;35.90;;;14.00;99.90;;;;;;5057895;28;20370;-85
2021/10/08 09:16:03;;;;;;;40.83;36.10;;;13.90;99.90;;;;;;5058092;28;20390;-85
2021/10/08 09:18:30;;;;;;;42.22;36.40;;;13.70;99.90;;;;;;5033676;28;20395;-85
2021/10/08 09:21:12;;;;;;;42.78;37.67;;;13.70;99.90;;;;;;5057758;28;20383;-87
2021/10/08 09:23:41;;;;;;;43.53;36.65;;;13.60;99.90;;;;;;5040011;28;20393;-85
2021/10/08 09:26:22;;;;;;;43.93;35.97;;;13.50;99.90;;;;;;5040630;28;20378;-85
2021/10/08 09:28:58;;;;;;;46.22;35.97;;;13.50;99.90;;;;;;5057545;28;20382;-86
2021/10/08 09:31:36;;;;;;;42.03;37.00;;;13.40;99.90;;;;;;5049263;28;20382;-85
2021/10/08 09:34:14;;;;;;;40.33;35.50;;;13.40;99.90;;;;;;5047547;28;20384;-85
2021/10/08 09:36:42;;;;;;;43.03;37.03;;;13.30;99.90;;;;;;5035985;28;20437;-86
2021/10/08 09:39:23;;;;;;;41.30;36.45;;;13.40;99.90;;;;;;5051740;28;20373;-85
2021/10/08 09:42:00;;;;;;;43.13;36.08;;;13.40;99.90;;;;;;5034343;28;20368;-85
2021/10/08 09:44:28;;;;;;;42.78;36.92;;;13.50;99.90;;;;;;5029312;28;20715;-85
2021/10/08 09:47:14;;;;;;;40.13;35.40;;;13.40;99.90;;;;;;5032345;28;20882;-84
2021/10/08 09:49:42;;;;;;;42.27;35.43;;;13.60;99.90;;;;;;5015713;28;20421;-85
2021/10/08 09:52:25;;;;;;;40.92;35.38;;;13.60;99.90;;;;;;5034117;28;20383;-86
2021/10/08 09:54:55;;;;;;;41.67;35.30;;;13.70;99.90;;;;;;5032751;28;20514;-86
2021/10/08 09:57:23;;;;;;;39.17;34.67;;;13.80;99.90;;;;;;5049733;28;20478;-86
2021/10/08 09:59:50;;;;;;;41.13;33.83;;;13.90;99.90;;;;;;5050618;28;20372;-87
2021/10/08 10:02:17;;;;;;;37.97;32.03;;;14.10;99.90;;;;;;5031968;28;20471;-85
2021/10/08 10:04:55;;;;;;;36.78;32.70;;;14.30;99.90;;;;;;5032201;28;20379;-85
2021/10/08 10:07:23;;;;;;;36.45;32.33;;;14.50;99.90;;;;;;5032224;28;20380;-85
2021/10/08 10:09:49;;;;;;;38.85;31.38;;;14.50;99.90;;;;;;5032231;28;20949;-86
2021/10/08 10:12:20;;;;;;;40.65;30.63;;;14.70;99.90;;;;;;5031640;28;20415;-86
2021/10/08 10:14:49;;;;;;;37.15;32.08;;;14.90;99.90;;;;;;5049747;28;20384;-85
2021/10/08 10:17:29;;;;;;;33.55;29.63;;;14.90;99.90;;;;;;5031597;28;20434;-86
2021/10/08 10:19:55;;;;;;;35.75;31.00;;;15.10;99.90;;;;;;5031542;28;20421;-84
2021/10/08 10:22:22;;;;;;;33.83;29.58;;;15.20;99.90;;;;;;5046575;28;20388;-85
2021/10/08 10:24:48;;;;;;;35.85;30.80;;;15.10;99.90;;;;;;5031956;28;20833;-87
2021/10/08 10:27:16;;;;;;;36.95;31.13;;;15.00;99.90;;;;;;5027278;28;20436;-85
2021/10/08 10:29:43;;;;;;;35.60;30.35;;;15.00;99.90;;;;;;5012424;28;20397;-86
2021/10/08 10:32:10;;;;;;;31.60;27.88;;;15.00;99.90;;;;;;5048676;28;20380;-85
2021/10/08 10:34:37;;;;;;;32.20;28.70;;;15.10;99.90;;;;;;5049746;28;20367;-87
2021/10/08 10:37:04;;;;;;;35.03;28.23;;;15.20;99.90;;;;;;5031878;28;20399;-87
2021/10/08 10:39:30;;;;;;;30.65;26.83;;;15.40;99.90;;;;;;5031734;28;20776;-87
2021/10/08 10:42:02;;;;;;;31.45;25.42;;;15.50;99.90;;;;;;5049450;28;20395;-85
2021/10/08 10:47:17;;;;;;;29.08;24.35;;;15.70;99.90;;;;;;5050288;28;20391;-86
2021/10/08 10:49:54;;;;;;;28.02;23.10;;;15.70;99.90;;;;;;5032266;28;20785;-85
2021/10/08 10:52:22;;;;;;;29.15;23.25;;;15.80;99.90;;;;;;5032579;28;20434;-89
2021/10/08 10:54:53;;;;;;;28.23;22.17;;;15.80;99.90;;;;;;5049330;28;20747;-86
2021/10/08 10:57:23;;;;;;;29.05;22.52;;;16.00;99.90;;;;;;5032399;28;20396;-87
2021/10/08 10:59:49;;;;;;;27.00;22.20;;;16.00;99.90;;;;;;5032226;28;20877;-87
2021/10/08 11:02:25;;;;;;;35.20;24.02;;;16.20;99.90;;;;;;5048944;28;21272;-87
2021/10/08 11:05:12;;;;;;;28.00;20.45;;;16.20;99.90;;;;;;5049675;28;20406;-85
2021/10/08 11:08:21;;;;;;;29.23;20.98;;;16.30;99.90;;;;;;5030952;28;20758;-84
2021/10/08 11:11:06;;;;;;;31.13;21.70;;;16.30;99.90;;;;;;5035058;28;20901;-85
2021/10/08 11:13:34;;;;;;;31.75;20.33;;;16.20;99.90;;;;;;5053421;28;20388;-85
2021/10/08 11:16:07;;;;;;;26.27;19.57;;;16.30;99.90;;;;;;5054369;28;20967;-84
2021/10/08 11:18:42;;;;;;;28.70;19.23;;;16.20;99.90;;;;;;5053734;28;20379;-87
2021/10/08 11:21:34;;;;;;;22.25;13.32;;;16.20;99.90;;;;;;5036278;28;20407;-87
2021/10/08 11:24:23;;;;;;;25.50;13.10;;;16.20;99.90;;;;;;5036129;28;20766;-86
2021/10/08 11:27:07;;;;;;;17.45;9.52;;;16.30;99.90;;;;;;5035985;28;20424;-85
2021/10/08 11:29:35;;;;;;;25.13;10.30;;;16.40;99.90;;;;;;5053513;28;20376;-85
2021/10/08 11:32:10;;;;;;;24.00;9.30;;;16.50;99.90;;;;;;5053708;28;20383;-85
2021/10/08 11:34:50;;;;;;;19.02;8.90;;;16.40;99.90;;;;;;5053481;28;20737;-84
2021/10/08 11:37:16;;;;;;;16.60;8.90;;;16.50;99.90;;;;;;5035626;28;20387;-87
2021/10/08 11:39:43;;;;;;;18.00;8.20;;;16.60;99.90;;;;;;5036538;28;20379;-85
2021/10/08 11:42:16;;;;;;;18.13;8.05;;;16.70;99.90;;;;;;5038398;28;20380;-87
2021/10/08 11:44:58;;;;;;;21.45;8.65;;;16.70;99.90;;;;;;5053204;28;20510;-83
2021/10/08 11:47:30;;;;;;;17.52;8.40;;;16.70;99.90;;;;;;5053391;28;20380;-84
2021/10/08 11:52:35;;;;;;;17.90;8.38;;;16.60;99.90;;;;;;5053192;28;20379;-86
2021/10/08 11:55:12;;;;;;;25.27;8.90;;;16.70;99.90;;;;;;5053120;28;20376;-85
2021/10/08 11:57:57;;;;;;;24.02;8.80;;;16.80;99.90;;;;;;5053160;28;20379;-84
2021/10/08 12:00:26;;;;;;;20.83;8.85;;;16.80;99.90;;;;;;5035365;28;20360;-87
2021/10/08 12:03:07;;;;;;;16.73;8.10;;;16.80;99.90;;;;;;5034704;28;20364;-84
2021/10/08 12:05:45;;;;;;;23.38;8.90;;;16.80;99.90;;;;;;5052716;28;20711;-85
2021/10/08 12:08:16;;;;;;;20.00;8.82;;;16.80;99.90;;;;;;5052564;28;20399;-84
2021/10/08 12:11:00;;;;;;;17.88;8.15;;;16.90;99.90;;;;;;5034345;28;20904;-86
2021/10/08 12:13:43;;;;;;;21.05;9.30;;;16.90;99.90;;;;;;5034731;28;20379;-86
2021/10/08 12:16:10;;;;;;;22.20;8.82;;;17.00;99.90;;;;;;5034148;28;20388;-86
2021/10/08 12:18:44;;;;;;;15.77;9.05;;;17.00;99.90;;;;;;5051693;28;20379;-85
2021/10/08 12:21:15;;;;;;;20.42;9.50;;;17.10;99.90;;;;;;5052801;28;20391;-84
2021/10/08 12:23:42;;;;;;;19.35;8.82;;;16.90;99.90;;;;;;5034457;28;20399;-88
2021/10/08 12:26:10;;;;;;;23.60;9.32;;;16.80;99.90;;;;;;5053399;28;20391;-87
2021/10/08 12:28:36;;;;;;;18.30;9.02;;;16.80;99.90;;;;;;5056386;28;20416;-87
2021/10/08 12:31:02;;;;;;;20.25;9.25;;;16.90;99.90;;;;;;5038981;28;20462;-87
2021/10/08 12:33:31;;;;;;;19.25;9.90;;;16.90;99.90;;;;;;5046035;28;20484;-85
2021/10/08 12:36:15;;;;;;;20.50;10.20;;;16.80;99.90;;;;;;5057000;28;20404;-87
2021/10/08 12:38:50;;;;;;;18.23;9.77;;;16.90;99.90;;;;;;5058256;28;20882;-87
2021/10/08 12:41:27;;;;;;;21.58;10.07;;;16.90;99.90;;;;;;5044973;28;20382;-88
2021/10/08 12:44:10;;;;;;;20.90;9.52;;;16.90;99.90;;;;;;5061662;28;20363;-86
2021/10/08 12:46:41;;;;;;;19.33;9.47;;;16.80;99.90;;;;;;5056047;28;20819;-81
2021/10/08 12:49:07;;;;;;;16.37;9.67;;;16.80;99.90;;;;;;5065338;28;20389;-83
2021/10/08 12:51:54;;;;;;;21.65;10.88;;;16.80;99.90;;;;;;5057571;28;20390;-87
2021/10/08 12:54:30;;;;;;;20.80;9.75;;;16.80;99.90;;;;;;5042138;28;20477;-85
2021/10/08 12:57:20;;;;;;;17.30;9.07;;;16.80;99.90;;;;;;5039487;28;20399;-84
2021/10/08 12:59:54;;;;;;;17.10;9.43;;;16.80;99.90;;;;;;5042464;28;20374;-85
2021/10/08 13:02:22;;;;;;;22.35;10.70;;;16.70;99.90;;;;;;5044274;28;20394;-84
2021/10/08 13:04:49;;;;;;;22.75;10.77;;;16.70;99.90;;;;;;5043353;28;20379;-84